createdAt,value
2022-08-12T00:02:04.133Z,60.81
2022-08-12T00:04:52.489Z,61.04
2022-08-12T00:07:38.065Z,60.80
2022-08-12T00:10:23.706Z,60.55
2022-08-12T00:13:08.785Z,60.27
2022-08-12T00:15:54.907Z,60.94
2022-08-12T00:18:40.178Z,61.64
2022-08-12T00:21:25.538Z,61.87
2022-08-12T00:24:12.672Z,61.70
2022-08-12T00:27:00.114Z,62.37
2022-08-12T00:29:47.973Z,62.75
2022-08-12T00:32:56.856Z,63.59
2022-08-12T00:35:39.464Z,63.81
2022-08-12T00:38:25.945Z,63.55
2022-08-12T00:41:11.595Z,63.49
2022-08-12T00:43:38.344Z,63.10
2022-08-12T00:46:24.004Z,62.88
2022-08-12T00:48:51.665Z,62.90
2022-08-12T00:51:19.649Z,63.67
2022-08-12T00:53:46.253Z,63.74
2022-08-12T00:56:12.870Z,64.32
2022-08-12T00:58:47.024Z,63.96
2022-08-12T01:01:14.449Z,64.29
2022-08-12T01:03:59.775Z,64.74
2022-08-12T01:06:46.315Z,64.36
2022-08-12T01:09:37.213Z,64.33
2022-08-12T01:12:06.345Z,65.06
2022-08-12T01:14:34.402Z,64.78
2022-08-12T01:17:01.018Z,65.54
2022-08-12T01:19:27.479Z,65.13
2022-08-12T01:22:23.146Z,66.28
2022-08-12T01:25:06.761Z,66.69
2022-08-12T01:27:35.107Z,66.03
2022-08-12T01:30:07.742Z,65.30
2022-08-12T01:32:38.396Z,65.78
2022-08-12T01:35:13.478Z,67.08
2022-08-12T01:37:56.509Z,67.25
2022-08-12T01:40:37.803Z,66.27
2022-08-12T01:43:10.924Z,66.76
2022-08-12T01:45:57.054Z,66.73
2022-08-12T01:48:34.848Z,66.57
2022-08-12T01:52:19.807Z,67.03
2022-08-12T01:54:28.804Z,67.73
2022-08-12T01:57:02.279Z,67.61
2022-08-12T01:59:58.426Z,67.83
2022-08-12T02:02:55.316Z,68.58
2022-08-12T02:06:01.233Z,67.99
2022-08-12T02:08:49.612Z,68.34
2022-08-12T02:11:24.629Z,67.77
2022-08-12T02:14:31.374Z,68.29
2022-08-12T02:17:24.126Z,68.85
2022-08-12T02:20:51.131Z,69.93
2022-08-12T02:23:26.787Z,69.75
2022-08-12T02:25:58.033Z,69.81
2022-08-12T02:28:24.876Z,69.72
2022-08-12T02:30:51.366Z,69.40
2022-08-12T02:33:19.706Z,69.71
2022-08-12T02:38:28.654Z,70.14
2022-08-12T02:40:57.456Z,70.35
2022-08-12T02:43:40.253Z,70.74
2022-08-12T02:46:14.475Z,69.91
2022-08-12T02:48:52.278Z,69.44
2022-08-12T02:51:34.000Z,70.66
2022-08-12T02:54:05.347Z,70.33
2022-08-12T02:56:34.188Z,71.00
2022-08-12T02:59:01.784Z,71.13
2022-08-12T03:01:35.613Z,72.44
2022-08-12T03:04:20.250Z,72.50
2022-08-12T03:07:09.492Z,72.61
2022-08-12T03:10:04.814Z,72.93
2022-08-12T03:12:42.817Z,73.81
2022-08-12T03:15:18.126Z,73.83
2022-08-12T03:18:25.879Z,74.76
2022-08-12T03:20:56.626Z,73.68
2022-08-12T03:23:29.795Z,73.75
2022-08-12T03:26:00.508Z,73.56
2022-08-12T03:28:47.677Z,73.12
2022-08-12T03:31:14.187Z,73.43
2022-08-12T03:34:00.773Z,72.97
2022-08-12T03:36:31.911Z,73.07
2022-08-12T03:39:35.549Z,73.21
2022-08-12T03:42:24.167Z,73.82
2022-08-12T03:45:26.407Z,74.26
2022-08-12T03:48:18.822Z,73.57
2022-08-12T03:51:05.939Z,75.01
2022-08-12T03:53:51.737Z,75.07
2022-08-12T03:56:37.046Z,73.96
2022-08-12T03:59:24.370Z,73.66
2022-08-12T04:01:57.661Z,74.11
2022-08-12T04:04:32.963Z,73.24
2022-08-12T04:07:09.861Z,74.07
2022-08-12T04:09:43.048Z,74.73
2022-08-12T04:12:29.946Z,74.53
2022-08-12T04:15:00.375Z,74.34
2022-08-12T04:17:27.983Z,74.11
2022-08-12T04:19:56.644Z,74.99
2022-08-12T04:22:29.407Z,75.47
2022-08-12T04:25:01.477Z,75.73
2022-08-12T04:27:31.517Z,74.82
2022-08-12T04:30:16.370Z,74.94
2022-08-12T04:32:48.180Z,74.04
2022-08-12T04:35:15.092Z,74.29
2022-08-12T04:37:58.402Z,73.90
2022-08-12T04:40:29.011Z,74.48
2022-08-12T04:42:55.959Z,74.40
2022-08-12T04:45:22.823Z,74.68
2022-08-12T04:47:49.607Z,75.52
2022-08-12T04:50:34.607Z,76.01
2022-08-12T04:53:08.245Z,75.72
2022-08-12T04:55:38.812Z,76.10
2022-08-12T04:58:06.731Z,76.15
2022-08-12T05:00:33.882Z,76.15
2022-08-12T05:03:00.437Z,76.69
2022-08-12T05:05:30.347Z,76.45
2022-08-12T05:07:59.080Z,75.66
2022-08-12T05:10:34.000Z,75.43
2022-08-12T05:13:08.117Z,74.66
2022-08-12T05:16:03.924Z,74.35
2022-08-12T05:18:25.294Z,74.76
2022-08-12T05:20:55.713Z,74.29
2022-08-12T05:23:22.523Z,73.75
2022-08-12T05:25:51.336Z,73.31
2022-08-12T05:28:18.222Z,73.48
2022-08-12T05:30:45.880Z,73.17
2022-08-12T05:33:13.582Z,73.34
2022-08-12T05:35:43.528Z,72.76
2022-08-12T05:38:41.034Z,72.29
2022-08-12T05:41:19.016Z,71.68
2022-08-12T05:44:00.684Z,71.24
2022-08-12T05:46:29.030Z,70.12
2022-08-12T05:48:56.358Z,68.97
2022-08-12T05:51:39.571Z,66.63
2022-08-12T05:54:08.819Z,65.05
2022-08-12T05:56:36.068Z,63.69
2022-08-12T05:59:07.522Z,63.63
2022-08-12T06:02:12.302Z,59.80
2022-08-12T06:04:21.450Z,57.35
2022-08-12T06:06:51.389Z,55.92
2022-08-12T06:09:17.808Z,55.25
2022-08-12T06:12:05.926Z,55.08
2022-08-12T06:14:36.713Z,54.13
2022-08-12T06:17:04.422Z,52.88
2022-08-12T06:20:26.593Z,53.17
2022-08-12T06:22:18.037Z,52.43
2022-08-12T06:24:44.505Z,51.59
2022-08-12T06:27:11.549Z,50.23
2022-08-12T06:30:08.848Z,49.63
2022-08-12T06:32:27.464Z,49.38
2022-08-12T06:35:23.400Z,48.22
2022-08-12T06:37:45.805Z,47.48
2022-08-12T06:40:42.205Z,47.27
2022-08-12T06:43:08.738Z,46.67
2022-08-12T06:45:45.231Z,46.51
2022-08-12T06:48:12.333Z,45.51
2022-08-12T06:50:40.204Z,46.06
2022-08-12T06:53:06.850Z,45.54
2022-08-12T06:55:33.299Z,43.94
2022-08-12T06:58:07.396Z,42.33
2022-08-12T07:00:36.966Z,42.02
2022-08-12T07:03:22.702Z,41.42
2022-08-12T07:05:50.854Z,40.69
2022-08-12T07:08:18.171Z,41.11
2022-08-12T07:10:50.789Z,40.75
2022-08-12T07:13:17.252Z,40.55
2022-08-12T07:15:43.868Z,39.54
2022-08-12T07:18:11.982Z,39.11
2022-08-12T07:20:51.831Z,38.83
2022-08-12T07:23:19.459Z,39.13
2022-08-12T07:25:45.958Z,38.65
2022-08-12T07:28:24.498Z,38.02
2022-08-12T07:30:53.366Z,38.79
2022-08-12T07:33:23.020Z,38.66
2022-08-12T07:35:53.876Z,38.61
2022-08-12T07:38:29.113Z,38.06
2022-08-12T07:41:15.818Z,37.99
2022-08-12T07:43:51.459Z,38.06
2022-08-12T07:46:22.548Z,37.41
2022-08-12T07:48:51.896Z,37.68
2022-08-12T07:51:25.274Z,37.80
2022-08-12T07:54:00.537Z,37.30
2022-08-12T07:56:31.130Z,37.06
2022-08-12T07:58:59.198Z,36.88
2022-08-12T08:01:26.383Z,36.73
2022-08-12T08:04:17.992Z,36.78
2022-08-12T08:06:45.934Z,36.73
2022-08-12T08:09:14.866Z,36.39
2022-08-12T08:12:00.382Z,36.80
2022-08-12T08:14:31.733Z,36.48
2022-08-12T08:16:59.708Z,36.10
2022-08-12T08:19:29.019Z,36.18
2022-08-12T08:21:57.189Z,35.95
2022-08-12T08:24:26.904Z,36.13
2022-08-12T08:26:58.878Z,35.59
2022-08-12T08:29:25.721Z,35.43
2022-08-12T08:31:59.927Z,34.93
2022-08-12T08:34:49.136Z,35.40
2022-08-12T08:37:17.281Z,35.16
2022-08-12T08:39:43.976Z,35.21
2022-08-12T08:42:36.786Z,34.48
2022-08-12T08:45:12.831Z,35.13
2022-08-12T08:47:49.674Z,35.49
2022-08-12T08:50:16.245Z,35.55
2022-08-12T08:52:47.330Z,35.38
2022-08-12T08:55:20.842Z,35.25
2022-08-12T08:57:53.611Z,35.07
2022-08-12T09:00:21.704Z,34.61
2022-08-12T09:02:59.502Z,34.62
2022-08-12T09:05:27.696Z,34.48
2022-08-12T09:08:09.077Z,34.80
2022-08-12T09:10:45.188Z,34.76
2022-08-12T09:14:12.960Z,33.93
2022-08-12T09:16:21.285Z,33.90
2022-08-12T09:18:52.683Z,33.55
2022-08-12T09:21:23.240Z,33.57
2022-08-12T09:23:57.752Z,33.56
2022-08-12T09:26:29.165Z,34.35
2022-08-12T09:28:56.850Z,33.66
2022-08-12T09:32:05.838Z,33.50
2022-08-12T09:34:28.118Z,33.23
2022-08-12T09:37:02.562Z,33.29
2022-08-12T09:40:03.590Z,33.67
2022-08-12T09:43:10.955Z,33.23
2022-08-12T09:46:06.941Z,33.73
2022-08-12T09:48:23.202Z,33.79
2022-08-12T09:50:51.870Z,33.27
2022-08-12T09:53:36.335Z,33.33
2022-08-12T09:57:00.931Z,33.22
2022-08-12T09:59:00.369Z,33.14
2022-08-12T10:01:35.354Z,33.77
2022-08-12T10:04:19.289Z,32.54
2022-08-12T10:06:53.790Z,32.94
2022-08-12T10:09:23.117Z,32.61
2022-08-12T10:12:14.206Z,32.93
2022-08-12T10:14:49.802Z,32.84
2022-08-12T10:17:18.571Z,32.71
2022-08-12T10:19:51.627Z,32.57
2022-08-12T10:22:37.228Z,33.36
2022-08-12T10:26:38.185Z,33.17
2022-08-12T10:28:30.467Z,32.67
2022-08-12T10:30:59.315Z,32.63
2022-08-12T10:33:31.454Z,31.93
2022-08-12T10:35:59.747Z,32.29
2022-08-12T10:38:38.140Z,32.01
2022-08-12T10:41:56.550Z,31.93
2022-08-12T10:44:16.995Z,31.78
2022-08-12T10:46:49.063Z,31.80
2022-08-12T10:50:03.659Z,31.81
2022-08-12T10:52:34.725Z,31.61
2022-08-12T10:54:53.393Z,32.33
2022-08-12T10:58:13.017Z,32.78
2022-08-12T11:00:30.583Z,32.92
2022-08-12T11:04:27.682Z,32.73
2022-08-12T11:07:10.203Z,32.45
2022-08-12T11:08:42.319Z,32.79
2022-08-12T11:11:13.602Z,32.66
2022-08-12T11:13:46.586Z,33.24
2022-08-12T11:16:22.522Z,33.10
2022-08-12T11:18:55.423Z,33.52
2022-08-12T11:21:56.397Z,32.83
2022-08-12T11:24:30.712Z,33.48
2022-08-12T11:27:07.797Z,33.40
2022-08-12T11:30:05.763Z,33.52
2022-08-12T11:32:29.386Z,33.80
2022-08-12T11:35:05.936Z,33.10
2022-08-12T11:37:59.392Z,32.84
2022-08-12T11:40:50.504Z,33.46
2022-08-12T11:43:50.294Z,32.90
2022-08-12T11:46:26.639Z,32.90
2022-08-12T11:48:53.070Z,33.50
2022-08-12T11:51:20.780Z,33.34
2022-08-12T11:53:58.341Z,33.55
2022-08-12T11:56:38.567Z,33.62
2022-08-12T12:02:04.741Z,34.00
2022-08-12T12:04:32.141Z,33.07
2022-08-12T12:07:07.447Z,33.36
2022-08-12T12:09:52.373Z,33.12
2022-08-12T12:12:22.306Z,32.67
2022-08-12T12:14:54.223Z,32.02
2022-08-12T12:17:21.655Z,33.01
2022-08-12T12:19:48.619Z,32.77
2022-08-12T12:22:15.693Z,32.26
2022-08-12T12:24:51.036Z,32.14
2022-08-12T12:27:39.384Z,32.19
2022-08-12T12:30:17.688Z,32.36
2022-08-12T12:32:53.738Z,32.53
2022-08-12T12:36:19.968Z,32.33
2022-08-12T12:38:12.867Z,31.90
2022-08-12T12:40:45.704Z,32.47
2022-08-12T12:43:16.998Z,32.50
2022-08-12T12:46:03.452Z,32.89
2022-08-12T12:48:29.886Z,32.46
2022-08-12T12:51:49.370Z,32.14
2022-08-12T12:54:07.187Z,32.40
2022-08-12T12:56:42.299Z,32.55
2022-08-12T12:59:33.703Z,32.52
2022-08-12T13:01:56.140Z,33.37
2022-08-12T13:04:24.644Z,32.74
2022-08-12T13:07:01.249Z,32.81
2022-08-12T13:09:28.393Z,32.74
2022-08-12T13:12:03.031Z,32.64
2022-08-12T13:14:31.632Z,32.46
2022-08-12T13:17:02.936Z,32.19
2022-08-12T13:19:43.451Z,32.12
2022-08-12T13:22:18.552Z,32.62
2022-08-12T13:24:54.943Z,32.19
2022-08-12T13:27:35.516Z,31.95
2022-08-12T13:30:06.906Z,32.13
2022-08-12T13:32:38.063Z,32.52
2022-08-12T13:35:19.237Z,32.35
2022-08-12T13:37:55.121Z,32.33
2022-08-12T13:40:40.742Z,32.08
2022-08-12T13:43:07.510Z,32.31
2022-08-12T13:45:35.414Z,31.72
2022-08-12T13:48:07.174Z,31.84
2022-08-12T13:50:38.672Z,32.05
2022-08-12T13:53:23.986Z,32.02
2022-08-12T13:55:59.522Z,32.19
2022-08-12T13:58:29.102Z,32.66
2022-08-12T14:00:58.003Z,31.91
2022-08-12T14:03:28.025Z,31.58
2022-08-12T14:05:59.149Z,31.65
2022-08-12T14:08:25.898Z,32.18
2022-08-12T14:11:02.047Z,31.53
2022-08-12T14:14:03.854Z,31.86
2022-08-12T14:16:37.821Z,32.03
2022-08-12T14:19:05.135Z,32.10
2022-08-12T14:21:59.288Z,32.59
2022-08-12T14:24:30.818Z,33.02
2022-08-12T14:26:57.518Z,32.98
2022-08-12T14:29:55.699Z,33.10
2022-08-12T14:32:39.160Z,33.58
2022-08-12T14:35:10.938Z,33.41
2022-08-12T14:37:57.323Z,33.69
2022-08-12T14:40:29.495Z,34.11
2022-08-12T14:42:58.324Z,34.06
2022-08-12T14:45:45.582Z,34.00
2022-08-12T14:48:13.135Z,34.21
2022-08-12T14:51:03.182Z,34.12
2022-08-12T14:59:23.804Z,33.92
2022-08-12T15:02:17.111Z,33.50
2022-08-12T15:05:03.470Z,33.93
2022-08-12T15:07:33.167Z,33.60
2022-08-12T15:10:10.767Z,33.71
2022-08-12T15:12:40.527Z,33.55
2022-08-12T15:15:08.761Z,33.59
2022-08-12T15:17:38.543Z,33.84
2022-08-12T15:20:31.512Z,33.36
2022-08-12T15:22:53.866Z,33.53
2022-08-12T15:25:20.745Z,33.28
2022-08-12T15:28:04.457Z,33.14
2022-08-12T15:30:34.637Z,32.73
2022-08-12T15:33:12.239Z,32.60
2022-08-12T15:35:50.250Z,32.64
2022-08-12T15:38:20.719Z,32.54
2022-08-12T15:40:49.929Z,32.67
2022-08-12T15:43:35.479Z,33.18
2022-08-12T15:46:06.256Z,33.81
2022-08-12T15:48:32.914Z,33.64
2022-08-12T15:51:01.931Z,33.09
2022-08-12T15:53:53.163Z,33.10
2022-08-12T15:56:29.355Z,33.40
2022-08-12T15:58:58.861Z,33.44
2022-08-12T16:01:35.138Z,33.34
2022-08-12T16:04:02.990Z,33.69
2022-08-12T16:06:50.989Z,34.04
2022-08-12T16:09:21.507Z,33.88
2022-08-12T16:11:48.753Z,33.64
2022-08-12T16:14:16.219Z,33.49
2022-08-12T16:16:42.924Z,33.37
2022-08-12T16:20:01.862Z,33.23
2022-08-12T16:21:58.226Z,33.58
2022-08-12T16:24:25.413Z,33.51
2022-08-12T16:27:03.778Z,33.31
2022-08-12T16:29:53.813Z,33.75
2022-08-12T16:32:31.741Z,33.54
2022-08-12T16:34:59.819Z,34.01
2022-08-12T16:38:04.746Z,33.43
2022-08-12T16:40:14.328Z,33.79
2022-08-12T16:42:53.807Z,33.60
2022-08-12T16:46:04.351Z,33.61
2022-08-12T16:48:34.605Z,33.91
2022-08-12T16:51:09.487Z,34.00
2022-08-12T16:53:44.654Z,34.34
2022-08-12T16:56:15.162Z,34.17
2022-08-12T16:58:42.271Z,34.06
2022-08-12T17:01:13.978Z,34.23
2022-08-12T17:03:58.842Z,34.16
2022-08-12T17:06:28.127Z,34.20
2022-08-12T17:09:02.861Z,34.41
2022-08-12T17:11:30.972Z,34.68
2022-08-12T17:13:59.097Z,34.54
2022-08-12T17:16:30.143Z,34.62
2022-08-12T17:18:59.715Z,34.36
2022-08-12T17:21:41.373Z,34.85
2022-08-12T17:24:21.714Z,34.95
2022-08-12T17:26:50.022Z,35.25
2022-08-12T17:29:24.014Z,35.21
2022-08-12T17:32:07.296Z,35.25
2022-08-12T17:34:54.101Z,35.52
2022-08-12T17:37:21.260Z,35.71
2022-08-12T17:40:07.431Z,35.50
2022-08-12T17:42:35.546Z,36.05
2022-08-12T17:45:18.207Z,36.19
2022-08-12T17:48:01.748Z,36.21
2022-08-12T17:50:36.870Z,36.25
2022-08-12T17:53:08.115Z,36.48
2022-08-12T17:55:44.004Z,36.71
2022-08-12T17:58:15.007Z,36.82
2022-08-12T18:00:46.062Z,36.61
2022-08-12T18:04:06.936Z,36.91
2022-08-12T18:06:14.255Z,36.75
2022-08-12T18:08:54.567Z,36.89
2022-08-12T18:12:05.569Z,37.17
2022-08-12T18:14:28.954Z,37.18
2022-08-12T18:17:00.522Z,37.14
2022-08-12T18:20:03.530Z,37.23
2022-08-12T18:22:17.604Z,37.03
2022-08-12T18:25:01.471Z,36.94
2022-08-12T18:27:43.488Z,37.69
2022-08-12T18:30:13.196Z,38.27
2022-08-12T18:32:59.101Z,37.87
2022-08-12T18:35:47.791Z,38.13
2022-08-12T18:38:17.083Z,38.89
2022-08-12T18:41:04.140Z,38.68
2022-08-12T18:43:57.213Z,39.00
2022-08-12T18:46:29.237Z,42.76
2022-08-12T18:48:57.587Z,40.54
2022-08-12T18:51:51.892Z,42.49
2022-08-12T18:54:23.284Z,43.44
2022-08-12T18:56:49.968Z,45.65
2022-08-12T19:00:01.145Z,47.49
2022-08-12T19:02:21.840Z,49.34
2022-08-12T19:04:49.568Z,52.05
2022-08-12T19:07:24.870Z,52.57
2022-08-12T19:09:59.976Z,50.77
2022-08-12T19:12:57.244Z,47.84
2022-08-12T19:15:25.619Z,49.76
2022-08-12T19:18:00.502Z,53.17
2022-08-12T19:20:32.847Z,52.01
2022-08-12T19:23:07.192Z,51.97
2022-08-12T19:26:00.521Z,51.81
2022-08-12T19:28:26.078Z,52.90
2022-08-12T19:31:17.546Z,51.14
2022-08-12T19:34:00.912Z,49.26
2022-08-12T19:36:32.483Z,50.34
2022-08-12T19:39:01.774Z,49.63
2022-08-12T19:41:42.454Z,49.39
2022-08-12T19:44:16.766Z,49.22
2022-08-12T19:46:52.907Z,49.78
2022-08-12T19:49:20.476Z,50.17
2022-08-12T19:51:51.543Z,49.64
2022-08-12T19:54:22.994Z,49.50
2022-08-12T19:56:57.455Z,50.18
2022-08-12T19:59:43.258Z,50.62
2022-08-12T20:02:22.738Z,50.74
2022-08-12T20:06:06.055Z,50.36
2022-08-12T20:07:57.164Z,50.89
2022-08-12T20:10:36.408Z,50.52
2022-08-12T20:13:18.337Z,51.91
2022-08-12T20:15:51.092Z,53.21
2022-08-12T20:18:53.275Z,54.41
2022-08-12T20:21:15.928Z,52.43
2022-08-12T20:23:59.854Z,51.65
2022-08-12T20:26:27.666Z,52.31
2022-08-12T20:28:54.821Z,53.28
2022-08-12T20:31:21.285Z,53.64
2022-08-12T20:33:50.657Z,53.79
2022-08-12T20:36:42.837Z,52.92
2022-08-12T20:39:34.059Z,52.61
2022-08-12T20:42:01.781Z,52.29
2022-08-12T20:44:30.414Z,53.43
2022-08-12T20:47:06.309Z,54.27
2022-08-12T20:49:44.278Z,54.41
2022-08-12T20:52:15.230Z,55.46
2022-08-12T20:54:50.123Z,55.66
2022-08-12T20:57:20.872Z,55.14
2022-08-12T20:59:50.157Z,55.37
2022-08-12T21:02:24.490Z,55.84
2022-08-12T21:05:16.289Z,56.24
2022-08-12T21:07:47.690Z,55.95
2022-08-12T21:10:18.928Z,55.82
2022-08-12T21:12:47.939Z,56.51
2022-08-12T21:15:18.021Z,56.81
2022-08-12T21:18:11.069Z,56.91
2022-08-12T21:20:55.736Z,57.13
2022-08-12T21:23:23.014Z,57.17
2022-08-12T21:25:51.168Z,57.03
2022-08-12T21:28:20.429Z,56.95
2022-08-12T21:31:11.780Z,57.51
2022-08-12T21:33:58.624Z,57.90
2022-08-12T21:36:22.545Z,58.46
2022-08-12T21:38:51.169Z,59.95
2022-08-12T21:41:20.230Z,58.55
2022-08-12T21:43:52.427Z,58.42
2022-08-12T21:46:35.337Z,59.18
2022-08-12T21:49:04.763Z,59.28
2022-08-12T21:51:49.051Z,58.99
2022-08-12T21:54:22.592Z,58.84
2022-08-12T21:56:50.280Z,60.48
2022-08-12T21:59:17.887Z,60.64
2022-08-12T22:01:48.949Z,59.53
2022-08-12T22:04:35.376Z,62.16
2022-08-12T22:07:02.223Z,61.31
2022-08-12T22:09:29.854Z,61.57
2022-08-12T22:12:39.095Z,62.12
2022-08-12T22:15:09.278Z,62.52
2022-08-12T22:17:49.832Z,62.67
2022-08-12T22:20:21.798Z,62.24
2022-08-12T22:22:57.043Z,61.93
2022-08-12T22:25:24.239Z,62.60
2022-08-12T22:28:11.960Z,62.14
2022-08-12T22:30:56.952Z,62.45
2022-08-12T22:33:23.375Z,62.75
2022-08-12T22:35:58.764Z,62.79
2022-08-12T22:38:29.186Z,62.62
2022-08-12T22:41:30.020Z,63.47
2022-08-12T22:44:15.565Z,62.60
2022-08-12T22:47:01.104Z,62.39
2022-08-12T22:49:36.852Z,64.24
2022-08-12T22:52:18.489Z,63.86
2022-08-12T22:55:02.990Z,63.75
2022-08-12T22:57:53.992Z,64.26
2022-08-12T23:00:23.966Z,64.12
2022-08-12T23:02:59.382Z,64.26
2022-08-12T23:05:57.503Z,63.14
2022-08-12T23:08:18.122Z,63.52
2022-08-12T23:10:48.278Z,64.40
2022-08-12T23:13:43.999Z,64.41
2022-08-12T23:16:28.501Z,65.13
2022-08-12T23:19:10.939Z,65.59
2022-08-12T23:22:06.760Z,66.16
2022-08-12T23:24:38.656Z,65.92
2022-08-12T23:27:23.868Z,66.06
2022-08-12T23:30:18.675Z,65.08
2022-08-12T23:32:46.503Z,65.38
2022-08-12T23:35:22.619Z,65.35
2022-08-12T23:37:53.932Z,66.03
2022-08-12T23:40:22.112Z,65.93
2022-08-12T23:42:49.123Z,65.62
2022-08-12T23:45:20.569Z,66.49
2022-08-12T23:47:59.771Z,66.16
2022-08-12T23:50:33.960Z,65.92
2022-08-12T23:53:05.768Z,65.76
2022-08-12T23:55:35.798Z,65.45
2022-08-12T23:58:21.445Z,65.38
